createdAt,value
2023-04-30T00:00:34.559Z,100426.72
2023-04-30T00:03:02.604Z,100434.00
2023-04-30T00:05:30.614Z,100432.50
2023-04-30T00:08:00.051Z,100427.47
2023-04-30T00:10:27.949Z,100425.31
2023-04-30T00:12:57.109Z,100429.50
2023-04-30T00:15:25.079Z,100429.78
2023-04-30T00:17:53.441Z,100433.44
2023-04-30T00:20:21.394Z,100424.50
2023-04-30T00:22:49.324Z,100429.25
2023-04-30T00:25:18.856Z,100431.25
2023-04-30T00:27:46.801Z,100426.22
2023-04-30T00:30:14.687Z,100430.88
2023-04-30T00:32:42.728Z,100415.16
2023-04-30T00:35:11.389Z,100426.78
2023-04-30T00:37:39.549Z,100425.31
2023-04-30T00:40:08.909Z,100420.31
2023-04-30T00:42:38.243Z,100419.97
2023-04-30T00:45:07.353Z,100421.69
2023-04-30T00:47:35.508Z,100408.91
2023-04-30T00:50:03.455Z,100423.53
2023-04-30T00:52:31.725Z,100418.22
2023-04-30T00:54:59.710Z,100398.59
2023-04-30T00:57:28.138Z,100410.53
2023-04-30T00:59:58.046Z,100411.53
2023-04-30T01:02:26.144Z,100411.91
2023-04-30T01:04:54.296Z,100412.38
2023-04-30T01:07:22.384Z,100412.03
2023-04-30T01:09:50.396Z,100412.50
2023-04-30T01:12:27.556Z,100406.78
2023-04-30T01:15:05.760Z,100415.16
2023-04-30T01:17:39.102Z,100409.81
2023-04-30T01:20:10.936Z,100403.59
2023-04-30T01:22:48.363Z,100416.84
2023-04-30T01:25:42.123Z,100405.75
2023-04-30T01:28:14.443Z,100404.91
2023-04-30T01:30:44.882Z,100401.59
2023-04-30T01:33:12.963Z,100402.56
2023-04-30T01:36:04.313Z,100395.34
2023-04-30T01:38:50.503Z,100398.28
2023-04-30T01:41:27.973Z,100396.91
2023-04-30T01:44:23.510Z,100389.25
2023-04-30T01:47:04.108Z,100388.84
2023-04-30T01:49:44.091Z,100388.84
2023-04-30T01:52:20.768Z,100386.84
2023-04-30T01:54:55.361Z,100379.38
2023-04-30T01:57:34.065Z,100388.81
2023-04-30T02:00:04.791Z,100377.97
2023-04-30T02:02:33.214Z,100383.91
2023-04-30T02:05:01.372Z,100386.47
2023-04-30T02:07:41.094Z,100384.41
2023-04-30T02:10:10.345Z,100370.16
2023-04-30T02:12:38.208Z,100382.63
2023-04-30T02:15:09.325Z,100382.09
2023-04-30T02:17:37.397Z,100377.13
2023-04-30T02:20:06.004Z,100386.47
2023-04-30T02:22:33.939Z,100381.03
2023-04-30T02:25:01.988Z,100380.25
2023-04-30T02:27:32.554Z,100386.75
2023-04-30T02:30:00.959Z,100393.31
2023-04-30T02:32:30.683Z,100385.31
2023-04-30T02:34:58.824Z,100389.97
2023-04-30T02:37:26.800Z,100390.47
2023-04-30T02:39:55.337Z,100390.59
2023-04-30T02:42:23.400Z,100395.53
2023-04-30T02:44:51.302Z,100385.91
2023-04-30T02:47:19.285Z,100387.00
2023-04-30T02:49:48.572Z,100385.09
2023-04-30T02:52:16.465Z,100396.38
2023-04-30T02:54:44.492Z,100392.25
2023-04-30T02:57:12.458Z,100391.94
2023-04-30T02:59:40.353Z,100395.88
2023-04-30T03:02:08.275Z,100396.34
2023-04-30T03:04:36.164Z,100403.59
2023-04-30T03:07:06.938Z,100402.94
2023-04-30T03:09:34.846Z,100414.09
2023-04-30T03:12:02.791Z,100405.72
2023-04-30T03:14:30.791Z,100394.13
2023-04-30T03:16:58.704Z,100401.41
2023-04-30T03:19:26.657Z,100392.59
2023-04-30T03:21:55.420Z,100406.75
2023-04-30T03:24:25.178Z,100402.44
2023-04-30T03:26:53.112Z,100409.22
2023-04-30T03:29:21.077Z,100408.88
2023-04-30T03:31:49.018Z,100409.72
2023-04-30T03:34:16.987Z,100411.72
2023-04-30T03:36:44.894Z,100415.78
2023-04-30T03:39:12.915Z,100424.59
2023-04-30T03:41:42.243Z,100416.75
2023-04-30T03:44:15.732Z,100424.97
2023-04-30T03:46:44.332Z,100422.66
2023-04-30T03:49:12.766Z,100420.28
2023-04-30T03:51:42.054Z,100431.53
2023-04-30T03:54:10.271Z,100433.13
2023-04-30T03:56:38.978Z,100436.47
2023-04-30T03:59:08.306Z,100436.69
2023-04-30T04:01:36.340Z,100437.78
2023-04-30T04:04:04.464Z,100438.72
2023-04-30T04:06:32.808Z,100435.22
2023-04-30T04:09:00.716Z,100435.56
2023-04-30T04:11:28.639Z,100427.75
2023-04-30T04:13:56.871Z,100429.81
2023-04-30T04:16:26.283Z,100439.31
2023-04-30T04:18:54.291Z,100430.25
2023-04-30T04:21:22.527Z,100426.91
2023-04-30T04:23:50.502Z,100427.69
2023-04-30T04:26:19.752Z,100425.44
2023-04-30T04:28:48.496Z,100422.75
2023-04-30T04:31:16.676Z,100429.44
2023-04-30T04:33:46.456Z,100429.59
2023-04-30T04:36:14.363Z,100434.16
2023-04-30T04:38:42.442Z,100436.22
2023-04-30T04:41:10.321Z,100426.81
2023-04-30T04:43:38.494Z,100428.97
2023-04-30T04:46:06.685Z,100435.41
2023-04-30T04:48:34.603Z,100430.91
2023-04-30T04:51:03.912Z,100436.50
2023-04-30T04:53:33.529Z,100434.88
2023-04-30T04:56:02.610Z,100431.34
2023-04-30T04:58:30.605Z,100432.91
2023-04-30T05:01:00.100Z,100433.00
2023-04-30T05:03:28.439Z,100432.59
2023-04-30T05:05:56.663Z,100434.38
2023-04-30T05:08:26.262Z,100437.75
2023-04-30T05:10:54.192Z,100445.66
2023-04-30T05:13:22.108Z,100447.97
2023-04-30T05:15:52.414Z,100453.25
2023-04-30T05:18:20.665Z,100451.84
2023-04-30T05:20:48.657Z,100456.31
2023-04-30T05:23:16.718Z,100452.97
2023-04-30T05:25:46.395Z,100456.00
2023-04-30T05:28:14.291Z,100462.09
2023-04-30T05:30:42.278Z,100465.22
2023-04-30T05:33:10.324Z,100471.84
2023-04-30T05:35:38.346Z,100471.84
2023-04-30T05:38:06.407Z,100473.75
2023-04-30T05:40:34.336Z,100469.00
2023-04-30T05:43:03.673Z,100465.97
2023-04-30T05:45:31.638Z,100471.22
2023-04-30T05:47:59.614Z,100469.13
2023-04-30T05:50:27.616Z,100467.72
2023-04-30T05:52:55.529Z,100459.16
2023-04-30T05:55:23.522Z,100459.00
2023-04-30T05:57:51.442Z,100460.38
2023-04-30T06:00:21.073Z,100456.19
2023-04-30T06:02:49.043Z,100458.28
2023-04-30T06:05:17.060Z,100456.44
2023-04-30T06:07:45.036Z,100464.16
2023-04-30T06:10:13.182Z,100460.69
2023-04-30T06:12:41.280Z,100461.16
2023-04-30T06:15:09.731Z,100464.16
2023-04-30T06:17:39.084Z,100461.59
2023-04-30T06:20:08.387Z,100465.69
2023-04-30T06:22:36.267Z,100465.06
2023-04-30T06:25:04.633Z,100462.56
2023-04-30T06:27:32.982Z,100474.50
2023-04-30T06:30:01.260Z,100465.38
2023-04-30T06:32:29.197Z,100471.28
2023-04-30T06:34:58.503Z,100461.16
2023-04-30T06:37:26.420Z,100464.06
2023-04-30T06:39:54.508Z,100464.41
2023-04-30T06:42:22.560Z,100459.44
2023-04-30T06:44:50.482Z,100466.41
2023-04-30T06:47:18.464Z,100464.53
2023-04-30T06:49:46.345Z,100465.09
2023-04-30T06:52:15.614Z,100464.94
2023-04-30T06:54:43.946Z,100468.41
2023-04-30T06:57:12.390Z,100465.66
2023-04-30T06:59:40.659Z,100476.63
2023-04-30T07:02:08.788Z,100475.53
2023-04-30T07:04:36.819Z,100478.81
2023-04-30T07:07:05.186Z,100483.19
2023-04-30T07:09:34.464Z,100476.44
2023-04-30T07:12:02.351Z,100477.16
2023-04-30T07:14:30.280Z,100484.03
2023-04-30T07:16:59.349Z,100475.13
2023-04-30T07:19:27.624Z,100478.41
2023-04-30T07:21:55.544Z,100481.78
2023-04-30T07:24:23.467Z,100483.72
2023-04-30T07:26:52.754Z,100481.66
2023-04-30T07:29:20.734Z,100483.84
2023-04-30T07:31:48.660Z,100479.50
2023-04-30T07:34:16.626Z,100473.78
2023-04-30T07:36:44.558Z,100478.09
2023-04-30T07:39:12.803Z,100473.94
2023-04-30T07:41:40.749Z,100479.09
2023-04-30T07:44:11.652Z,100474.94
2023-04-30T07:46:39.682Z,100469.94
2023-04-30T07:49:07.672Z,100479.31
2023-04-30T07:51:35.945Z,100470.59
2023-04-30T07:54:04.052Z,100474.91
2023-04-30T07:56:32.310Z,100468.44
2023-04-30T07:59:00.211Z,100468.22
2023-04-30T08:01:29.731Z,100471.41
2023-04-30T08:03:57.793Z,100468.06
2023-04-30T08:06:27.557Z,100475.56
2023-04-30T08:08:55.704Z,100466.88
2023-04-30T08:11:23.584Z,100458.38
2023-04-30T08:13:51.525Z,100466.13
2023-04-30T08:16:19.471Z,100463.38
2023-04-30T08:18:49.788Z,100461.53
2023-04-30T08:21:18.747Z,100466.41
2023-04-30T08:23:46.694Z,100463.00
2023-04-30T08:26:14.692Z,100460.53
2023-04-30T08:28:42.579Z,100458.00
2023-04-30T08:31:10.495Z,100461.59
2023-04-30T08:33:38.435Z,100450.31
2023-04-30T08:36:08.311Z,100460.03
2023-04-30T08:38:36.205Z,100457.41
2023-04-30T08:41:11.423Z,100458.22
2023-04-30T08:43:39.746Z,100454.34
2023-04-30T08:46:08.202Z,100450.94
2023-04-30T08:48:36.319Z,100446.78
2023-04-30T08:51:04.937Z,100455.22
2023-04-30T08:53:37.130Z,100450.19
2023-04-30T08:56:05.612Z,100426.84
2023-04-30T08:58:33.849Z,100445.75
2023-04-30T09:01:03.577Z,100440.19
2023-04-30T09:03:32.384Z,100437.56
2023-04-30T09:06:00.516Z,100439.94
2023-04-30T09:08:47.011Z,100442.34
2023-04-30T09:11:25.856Z,100439.41
2023-04-30T09:13:55.269Z,100430.25
2023-04-30T09:16:23.589Z,100437.47
2023-04-30T09:18:52.139Z,100426.00
2023-04-30T09:21:32.688Z,100434.94
2023-04-30T09:24:03.154Z,100422.88
2023-04-30T09:26:33.801Z,100414.16
2023-04-30T09:29:07.803Z,100413.94
2023-04-30T09:31:36.515Z,100406.06
2023-04-30T09:34:05.294Z,100408.50
2023-04-30T09:36:33.500Z,100405.22
2023-04-30T09:39:14.238Z,100404.72
2023-04-30T09:41:43.454Z,100403.41
2023-04-30T09:44:28.061Z,100388.56
2023-04-30T09:46:57.209Z,100401.22
2023-04-30T09:49:27.400Z,100401.06
2023-04-30T09:51:56.787Z,100391.28
2023-04-30T09:54:28.683Z,100391.59
2023-04-30T09:56:59.165Z,100395.13
2023-04-30T09:59:32.089Z,100399.09
2023-04-30T10:02:02.159Z,100386.06
2023-04-30T10:04:32.343Z,100390.28
2023-04-30T10:07:03.331Z,100390.66
2023-04-30T10:09:40.360Z,100396.97
2023-04-30T10:12:14.886Z,100392.00
2023-04-30T10:14:48.658Z,100379.44
2023-04-30T10:17:18.171Z,100384.41
2023-04-30T10:19:49.476Z,100388.84
2023-04-30T10:22:17.828Z,100388.53
2023-04-30T10:24:47.248Z,100386.84
2023-04-30T10:27:15.302Z,100379.63
2023-04-30T10:29:44.515Z,100378.63
2023-04-30T10:32:14.191Z,100382.06
2023-04-30T10:34:54.153Z,100380.72
2023-04-30T10:37:32.349Z,100376.81
2023-04-30T10:40:05.172Z,100367.22
2023-04-30T10:42:35.865Z,100373.97
2023-04-30T10:45:04.717Z,100367.34
2023-04-30T10:47:32.894Z,100365.53
2023-04-30T10:50:04.847Z,100372.34
2023-04-30T10:52:32.880Z,100367.34
2023-04-30T10:55:06.075Z,100360.75
2023-04-30T10:57:41.639Z,100366.13
2023-04-30T11:00:25.795Z,100368.66
2023-04-30T11:02:58.339Z,100353.88
2023-04-30T11:05:37.829Z,100362.19
2023-04-30T11:08:06.376Z,100360.34
2023-04-30T11:10:36.919Z,100370.28
2023-04-30T11:13:06.877Z,100363.41
2023-04-30T11:15:40.668Z,100369.56
2023-04-30T11:18:09.481Z,100352.38
2023-04-30T11:20:42.696Z,100344.78
2023-04-30T11:23:12.824Z,100365.59
2023-04-30T11:25:43.120Z,100362.13
2023-04-30T11:28:15.558Z,100366.06
2023-04-30T11:30:51.366Z,100356.94
2023-04-30T11:33:19.762Z,100362.97
2023-04-30T11:35:49.463Z,100364.59
2023-04-30T11:38:19.119Z,100358.25
2023-04-30T11:40:50.085Z,100353.97
2023-04-30T11:43:25.182Z,100355.22
2023-04-30T11:46:05.771Z,100346.25
2023-04-30T11:48:34.905Z,100344.03
2023-04-30T11:51:07.463Z,100341.91
2023-04-30T11:53:35.412Z,100343.41
2023-04-30T11:56:08.514Z,100339.81
2023-04-30T11:58:38.090Z,100335.13
2023-04-30T12:01:06.821Z,100343.47
2023-04-30T12:03:35.427Z,100340.78
2023-04-30T12:06:03.596Z,100332.59
2023-04-30T12:08:31.630Z,100326.25
2023-04-30T12:10:59.512Z,100323.34
2023-04-30T12:13:28.973Z,100335.53
2023-04-30T12:16:00.460Z,100317.53
2023-04-30T12:18:28.537Z,100313.97
2023-04-30T12:20:56.673Z,100307.72
2023-04-30T12:23:24.738Z,100318.56
2023-04-30T12:25:52.649Z,100319.75
2023-04-30T12:28:20.578Z,100315.22
2023-04-30T12:30:49.937Z,100311.38
2023-04-30T12:33:19.342Z,100310.09
2023-04-30T12:35:47.739Z,100309.06
2023-04-30T12:38:18.457Z,100299.69
2023-04-30T12:40:48.980Z,100301.97
2023-04-30T12:43:18.513Z,100308.59
2023-04-30T12:45:51.629Z,100293.50
2023-04-30T12:48:20.876Z,100297.50
2023-04-30T12:50:50.454Z,100289.25
2023-04-30T12:53:18.422Z,100286.81
2023-04-30T12:56:10.572Z,100291.91
2023-04-30T12:58:39.020Z,100285.66
2023-04-30T13:01:12.236Z,100295.19
2023-04-30T13:03:40.708Z,100285.44
2023-04-30T13:06:10.085Z,100285.19
2023-04-30T13:08:49.585Z,100283.94
2023-04-30T13:11:18.206Z,100287.72
2023-04-30T13:13:46.132Z,100273.59
2023-04-30T13:16:15.450Z,100271.91
2023-04-30T13:18:43.421Z,100275.56
2023-04-30T13:21:11.541Z,100271.56
2023-04-30T13:23:51.201Z,100257.72
2023-04-30T13:26:21.496Z,100256.41
2023-04-30T13:28:49.519Z,100254.84
2023-04-30T13:31:18.909Z,100256.69
2023-04-30T13:33:46.965Z,100262.78
2023-04-30T13:36:14.968Z,100255.47
2023-04-30T13:38:42.927Z,100251.72
2023-04-30T13:41:10.850Z,100250.03
2023-04-30T13:43:42.116Z,100251.72
2023-04-30T13:46:10.669Z,100251.06
2023-04-30T13:48:40.034Z,100256.66
2023-04-30T13:51:08.410Z,100243.59
2023-04-30T13:53:37.437Z,100252.31
2023-04-30T13:56:05.994Z,100236.56
2023-04-30T13:58:34.220Z,100248.91
2023-04-30T14:01:02.754Z,100248.16
2023-04-30T14:03:31.237Z,100249.81
2023-04-30T14:06:00.708Z,100247.47
2023-04-30T14:08:28.619Z,100251.97
2023-04-30T14:10:56.532Z,100250.59
2023-04-30T14:13:24.597Z,100253.00
2023-04-30T14:15:52.909Z,100264.34
2023-04-30T14:18:22.852Z,100250.72
2023-04-30T14:20:51.065Z,100236.94
2023-04-30T14:23:20.516Z,100256.13
2023-04-30T14:25:48.460Z,100252.00
2023-04-30T14:28:16.823Z,100251.72
2023-04-30T14:30:44.730Z,100253.81
2023-04-30T14:33:13.028Z,100247.66
2023-04-30T14:35:41.656Z,100245.34
2023-04-30T14:38:09.765Z,100251.38
2023-04-30T14:40:39.102Z,100254.34
2023-04-30T14:43:07.033Z,100247.41
2023-04-30T14:45:35.062Z,100257.66
2023-04-30T14:48:05.702Z,100245.44
2023-04-30T14:50:33.792Z,100255.34
2023-04-30T14:53:01.837Z,100255.00
2023-04-30T14:55:29.848Z,100253.34
2023-04-30T14:57:59.696Z,100255.03
2023-04-30T15:00:28.013Z,100250.06
2023-04-30T15:05:23.969Z,100263.94
2023-04-30T15:07:51.889Z,100250.75
2023-04-30T15:10:20.155Z,100250.25
2023-04-30T15:12:48.133Z,100259.47
2023-04-30T15:15:18.919Z,100262.28
2023-04-30T15:17:47.168Z,100250.91
2023-04-30T15:20:15.214Z,100263.59
2023-04-30T15:22:43.226Z,100255.44
2023-04-30T15:25:11.205Z,100253.94
2023-04-30T15:27:39.139Z,100255.75
2023-04-30T15:30:08.743Z,100249.34
2023-04-30T15:32:38.084Z,100255.22
2023-04-30T15:35:06.869Z,100252.41
2023-04-30T15:37:35.216Z,100234.28
2023-04-30T15:40:05.687Z,100249.38
2023-04-30T15:42:34.639Z,100259.59
2023-04-30T15:45:02.536Z,100259.16
2023-04-30T15:47:31.145Z,100250.22
2023-04-30T15:50:00.469Z,100259.31
2023-04-30T15:52:28.397Z,100261.72
2023-04-30T15:54:56.660Z,100260.88
2023-04-30T15:57:24.680Z,100258.50
2023-04-30T15:59:52.916Z,100264.19
2023-04-30T16:02:21.220Z,100266.31
2023-04-30T16:04:49.141Z,100269.72
2023-04-30T16:07:18.470Z,100261.13
2023-04-30T16:09:49.065Z,100274.13
2023-04-30T16:12:17.248Z,100276.38
2023-04-30T16:14:45.179Z,100272.03
2023-04-30T16:17:13.093Z,100264.66
2023-04-30T16:19:41.092Z,100277.78
2023-04-30T16:22:09.300Z,100283.03
2023-04-30T16:24:38.586Z,100289.38
2023-04-30T16:27:07.405Z,100280.09
2023-04-30T16:29:35.375Z,100282.81
2023-04-30T16:32:03.376Z,100285.19
2023-04-30T16:34:31.346Z,100288.81
2023-04-30T16:36:59.266Z,100294.56
2023-04-30T16:39:27.169Z,100287.13
2023-04-30T16:41:56.759Z,100287.69
2023-04-30T16:44:24.692Z,100306.00
2023-04-30T16:46:52.576Z,100294.00
2023-04-30T16:49:21.302Z,100289.50
2023-04-30T16:51:49.236Z,100306.69
2023-04-30T16:54:17.150Z,100303.28
2023-04-30T16:56:45.061Z,100302.78
2023-04-30T16:59:14.339Z,100298.06
2023-04-30T17:01:42.371Z,100309.63
2023-04-30T17:04:10.692Z,100306.38
2023-04-30T17:06:38.949Z,100315.09
2023-04-30T17:09:07.075Z,100315.22
2023-04-30T17:11:35.145Z,100320.44
2023-04-30T17:14:03.111Z,100316.28
2023-04-30T17:16:32.499Z,100317.41
2023-04-30T17:19:00.698Z,100321.16
2023-04-30T17:21:29.837Z,100325.72
2023-04-30T17:23:58.656Z,100323.75
2023-04-30T17:26:26.835Z,100321.81
2023-04-30T17:28:54.750Z,100328.72
2023-04-30T17:31:24.154Z,100318.22
2023-04-30T17:33:53.490Z,100325.63
2023-04-30T17:36:21.416Z,100323.81
2023-04-30T17:38:49.321Z,100319.00
2023-04-30T17:41:18.858Z,100336.53
2023-04-30T17:43:46.763Z,100332.25
2023-04-30T17:46:14.758Z,100334.75
2023-04-30T17:48:42.713Z,100340.00
2023-04-30T17:51:12.064Z,100340.69
2023-04-30T17:53:40.731Z,100345.94
2023-04-30T17:56:09.756Z,100353.50
2023-04-30T17:58:39.805Z,100364.41
2023-04-30T18:01:08.157Z,100359.22
2023-04-30T18:03:37.294Z,100366.75
2023-04-30T18:06:05.394Z,100370.34
2023-04-30T18:08:34.725Z,100372.41
2023-04-30T18:11:03.473Z,100368.91
2023-04-30T18:13:31.670Z,100382.31
2023-04-30T18:15:59.665Z,100377.00
2023-04-30T18:18:27.917Z,100395.78
2023-04-30T18:20:55.974Z,100398.03
2023-04-30T18:23:23.908Z,100403.91
2023-04-30T18:25:53.619Z,100399.88
2023-04-30T18:28:21.661Z,100398.13
2023-04-30T18:30:49.901Z,100405.94
2023-04-30T18:33:17.849Z,100409.47
2023-04-30T18:35:50.510Z,100409.66
2023-04-30T18:38:18.740Z,100416.00
2023-04-30T18:40:46.661Z,100419.09
2023-04-30T18:43:16.945Z,100427.91
2023-04-30T18:45:45.013Z,100420.06
2023-04-30T18:48:15.200Z,100418.91
2023-04-30T18:50:43.431Z,100427.69
2023-04-30T18:53:11.451Z,100429.16
2023-04-30T18:55:39.435Z,100426.78
2023-04-30T18:58:07.359Z,100435.81
2023-04-30T19:00:36.635Z,100435.38
2023-04-30T19:03:04.700Z,100427.16
2023-04-30T19:05:35.000Z,100423.16
2023-04-30T19:08:03.168Z,100435.41
2023-04-30T19:10:31.131Z,100440.25
2023-04-30T19:12:59.029Z,100438.00
2023-04-30T19:15:29.733Z,100446.44
2023-04-30T19:17:59.115Z,100460.34
2023-04-30T19:20:27.095Z,100453.34
2023-04-30T19:22:54.980Z,100463.19
2023-04-30T19:25:23.540Z,100462.84
2023-04-30T19:27:51.547Z,100467.81
2023-04-30T19:30:19.468Z,100469.25
2023-04-30T19:32:47.682Z,100473.53
2023-04-30T19:35:17.412Z,100473.84
2023-04-30T19:37:45.542Z,100480.69
2023-04-30T19:40:14.464Z,100488.75
2023-04-30T19:42:42.459Z,100491.31
2023-04-30T19:45:11.667Z,100509.03
2023-04-30T19:47:39.736Z,100508.03
2023-04-30T19:50:09.133Z,100509.09
2023-04-30T19:52:38.413Z,100510.66
2023-04-30T19:55:06.788Z,100495.94
2023-04-30T19:57:35.947Z,100503.88
2023-04-30T20:00:06.267Z,100510.63
2023-04-30T20:02:34.270Z,100510.19
2023-04-30T20:05:02.283Z,100502.03
2023-04-30T20:07:30.248Z,100505.06
2023-04-30T20:09:59.505Z,100505.69
2023-04-30T20:12:27.423Z,100506.53
2023-04-30T20:14:55.369Z,100507.47
2023-04-30T20:17:23.296Z,100504.97
2023-04-30T20:19:51.213Z,100514.59
2023-04-30T20:22:19.142Z,100515.63
2023-04-30T20:24:48.229Z,100521.84
2023-04-30T20:27:17.521Z,100525.66
2023-04-30T20:29:45.437Z,100533.69
2023-04-30T20:32:13.438Z,100552.50
2023-04-30T20:34:41.804Z,100545.84
2023-04-30T20:37:09.724Z,100562.38
2023-04-30T20:39:39.240Z,100551.81
2023-04-30T20:42:07.302Z,100549.91
2023-04-30T20:44:36.595Z,100553.44
2023-04-30T20:47:05.566Z,100549.91
2023-04-30T20:49:33.571Z,100555.69
2023-04-30T20:52:01.477Z,100552.69
2023-04-30T20:54:30.051Z,100570.88
2023-04-30T20:56:57.933Z,100576.53
2023-04-30T20:59:25.934Z,100568.00
2023-04-30T21:01:55.235Z,100562.72
2023-04-30T21:04:23.350Z,100567.22
2023-04-30T21:06:51.296Z,100567.22
2023-04-30T21:09:19.222Z,100571.13
2023-04-30T21:11:47.132Z,100581.66
2023-04-30T21:14:15.008Z,100580.94
2023-04-30T21:16:43.737Z,100583.56
2023-04-30T21:19:13.442Z,100574.16
2023-04-30T21:21:41.560Z,100574.66
2023-04-30T21:24:09.493Z,100577.81
2023-04-30T21:26:37.402Z,100567.94
2023-04-30T21:29:05.385Z,100550.63
2023-04-30T21:31:33.393Z,100578.91
2023-04-30T21:34:01.359Z,100577.25
2023-04-30T21:36:31.474Z,100568.78
2023-04-30T21:38:59.485Z,100568.41
2023-04-30T21:41:28.119Z,100563.75
2023-04-30T21:43:56.468Z,100568.72
2023-04-30T21:46:24.544Z,100569.53
2023-04-30T21:48:52.672Z,100569.25
2023-04-30T21:51:20.679Z,100564.44
2023-04-30T21:53:50.011Z,100569.66
2023-04-30T21:56:19.745Z,100569.81
2023-04-30T21:58:49.481Z,100565.13
2023-04-30T22:01:18.275Z,100572.50
2023-04-30T22:03:46.339Z,100566.81
2023-04-30T22:06:14.322Z,100563.94
2023-04-30T22:08:42.225Z,100554.59
2023-04-30T22:11:12.194Z,100547.94
2023-04-30T22:13:40.094Z,100560.88
2023-04-30T22:16:08.616Z,100558.66
2023-04-30T22:18:36.550Z,100556.16
2023-04-30T22:21:04.504Z,100565.06
2023-04-30T22:23:32.408Z,100575.41
2023-04-30T22:26:01.308Z,100576.16
2023-04-30T22:28:30.595Z,100584.03
2023-04-30T22:30:59.856Z,100578.41
2023-04-30T22:33:28.011Z,100586.56
2023-04-30T22:35:56.320Z,100590.53
2023-04-30T22:38:24.585Z,100585.31
2023-04-30T22:40:52.489Z,100585.72
2023-04-30T22:43:20.471Z,100571.94
2023-04-30T22:45:49.832Z,100583.59
2023-04-30T22:48:18.055Z,100578.63
2023-04-30T22:50:46.196Z,100575.59
2023-04-30T22:53:14.277Z,100573.38
2023-04-30T22:55:42.250Z,100580.94
2023-04-30T22:58:10.174Z,100576.34
2023-04-30T23:00:38.223Z,100580.63
2023-04-30T23:03:07.637Z,100581.97
2023-04-30T23:05:35.548Z,100588.16
2023-04-30T23:08:04.460Z,100579.88
2023-04-30T23:10:32.344Z,100588.38
2023-04-30T23:13:00.253Z,100592.38
2023-04-30T23:15:28.205Z,100585.41
2023-04-30T23:17:57.014Z,100592.94
2023-04-30T23:20:26.409Z,100588.50
2023-04-30T23:22:54.316Z,100593.66
2023-04-30T23:25:22.489Z,100600.03
2023-04-30T23:27:50.388Z,100589.47
2023-04-30T23:30:18.297Z,100589.47
2023-04-30T23:32:46.610Z,100591.69
2023-04-30T23:35:14.684Z,100597.22
2023-04-30T23:37:43.959Z,100599.00
2023-04-30T23:40:12.304Z,100599.53
2023-04-30T23:42:40.205Z,100596.47
2023-04-30T23:45:09.547Z,100589.69
2023-04-30T23:47:38.423Z,100598.53
2023-04-30T23:50:07.217Z,100589.97
2023-04-30T23:52:35.845Z,100590.38
2023-04-30T23:55:05.582Z,100588.72
2023-04-30T23:57:33.707Z,100579.88
